Time;durP1;ratioP1;P1;durP2;ratioP2;P2;SDS_P1;SDS_P2;PMS_P1;PMS_P2;Temp;Humidity;BMP_temperature;BMP_pressure;BME280_temperature;BME280_humidity;BME280_pressure;Samples;Min_cycle;Max_cycle;Signal;HPM_P1;HPM_P2
2021/12/23 00:01:26;;;;;;;23.27;15.90;;;1.20;99.90;;;;;;5142148;27;20506;-69
2021/12/23 00:03:51;;;;;;;29.30;15.65;;;1.20;99.90;;;;;;5136100;27;20050;-69
2021/12/23 00:06:17;;;;;;;22.48;14.68;;;1.20;99.90;;;;;;5131143;27;20050;-69
2021/12/23 00:08:42;;;;;;;21.05;13.80;;;1.20;99.90;;;;;;5150328;27;20822;-69
2021/12/23 00:11:08;;;;;;;20.85;12.88;;;1.20;99.90;;;;;;5138976;27;20099;-69
2021/12/23 00:13:35;;;;;;;22.38;14.80;;;1.20;99.90;;;;;;5140325;27;20043;-69
2021/12/23 00:16:04;;;;;;;24.67;14.98;;;1.20;99.90;;;;;;5129465;27;20054;-69
2021/12/23 00:18:56;;;;;;;21.30;13.95;;;1.20;99.90;;;;;;5116642;27;20047;-69
2021/12/23 00:24:03;;;;;;;24.20;15.00;;;1.20;99.90;;;;;;5103537;27;20047;-69
2021/12/23 00:26:29;;;;;;;24.67;15.07;;;1.20;99.90;;;;;;5124754;27;20059;-69
2021/12/23 00:28:55;;;;;;;21.48;15.20;;;1.20;99.90;;;;;;5111615;27;20043;-69
2021/12/23 00:31:21;;;;;;;23.23;15.30;;;1.20;99.90;;;;;;5123222;27;20082;-69
2021/12/23 00:33:47;;;;;;;27.83;16.15;;;1.30;99.90;;;;;;5133437;27;20184;-69
2021/12/23 00:36:13;;;;;;;22.65;14.10;;;1.20;99.90;;;;;;5130324;27;20494;-69
2021/12/23 00:38:48;;;;;;;23.33;14.88;;;1.20;99.90;;;;;;5119728;27;20672;-69
2021/12/23 00:41:14;;;;;;;23.50;14.50;;;1.20;99.90;;;;;;5135106;27;20087;-69
2021/12/23 00:43:40;;;;;;;21.70;14.55;;;1.20;99.90;;;;;;5130073;27;20122;-69
2021/12/23 00:46:05;;;;;;;23.80;15.07;;;1.20;99.90;;;;;;5126026;27;20040;-69
2021/12/23 00:48:31;;;;;;;26.50;15.15;;;1.30;99.90;;;;;;5136907;27;20046;-69
2021/12/23 00:50:57;;;;;;;19.27;13.30;;;1.30;99.90;;;;;;5131793;27;20035;-69
2021/12/23 00:53:23;;;;;;;20.70;13.57;;;1.30;99.90;;;;;;5133279;27;20119;-69
2021/12/23 00:55:53;;;;;;;22.50;14.63;;;1.30;99.90;;;;;;5129845;27;20095;-69
2021/12/23 00:58:19;;;;;;;19.65;13.82;;;1.30;99.90;;;;;;5129034;27;20533;-69
2021/12/23 01:00:48;;;;;;;23.90;14.82;;;1.30;99.90;;;;;;5130872;27;20127;-69
2021/12/23 01:03:14;;;;;;;19.67;13.43;;;1.30;99.90;;;;;;5132723;27;20035;-69
2021/12/23 01:05:41;;;;;;;25.83;14.38;;;1.30;99.90;;;;;;5118255;27;20043;-70
2021/12/23 01:08:07;;;;;;;25.98;12.75;;;1.30;99.90;;;;;;5106398;27;20054;-69
2021/12/23 01:10:33;;;;;;;22.85;13.75;;;1.30;99.90;;;;;;5124019;27;20118;-69
2021/12/23 01:13:02;;;;;;;23.05;14.68;;;1.30;99.90;;;;;;5147095;27;20122;-70
2021/12/23 01:18:07;;;;;;;19.25;12.52;;;1.40;99.90;;;;;;5113529;27;20047;-69
2021/12/23 01:20:36;;;;;;;19.40;13.85;;;1.30;99.90;;;;;;5109051;28;20039;-68
2021/12/23 01:23:08;;;;;;;19.67;13.48;;;1.30;99.90;;;;;;5141017;27;20047;-69
2021/12/23 01:25:36;;;;;;;18.35;12.95;;;1.30;99.90;;;;;;5138491;27;20134;-69
2021/12/23 01:28:03;;;;;;;16.80;12.48;;;1.30;99.90;;;;;;5133485;27;20050;-69
2021/12/23 01:30:30;;;;;;;19.80;13.93;;;1.30;99.90;;;;;;5144410;27;20509;-69
2021/12/23 01:32:57;;;;;;;20.90;14.52;;;1.20;99.90;;;;;;5128678;28;20138;-69
2021/12/23 01:35:24;;;;;;;21.85;13.38;;;1.20;99.90;;;;;;5110196;28;20031;-69
2021/12/23 01:37:49;;;;;;;18.83;13.10;;;1.30;99.90;;;;;;5123937;27;20076;-69
2021/12/23 01:40:18;;;;;;;19.55;12.48;;;1.20;99.90;;;;;;5128151;28;20175;-69
2021/12/23 01:42:43;;;;;;;20.25;12.52;;;1.20;99.90;;;;;;5114853;27;20066;-69
2021/12/23 01:45:12;;;;;;;19.23;12.82;;;1.20;99.90;;;;;;5141773;27;20120;-69
2021/12/23 01:47:38;;;;;;;19.48;12.90;;;1.30;99.90;;;;;;5128461;28;20039;-69
2021/12/23 01:50:05;;;;;;;19.73;13.32;;;1.20;99.90;;;;;;5128814;28;20081;-69
2021/12/23 01:52:31;;;;;;;19.77;13.52;;;1.20;99.90;;;;;;5102140;27;20059;-71
2021/12/23 01:54:56;;;;;;;19.27;12.55;;;1.10;99.90;;;;;;5141185;27;20493;-70
2021/12/23 01:57:23;;;;;;;26.73;14.30;;;1.20;99.90;;;;;;5145590;27;20142;-70
2021/12/23 01:59:49;;;;;;;22.35;13.65;;;1.20;99.90;;;;;;5125102;27;20058;-69
2021/12/23 02:02:14;;;;;;;20.77;12.88;;;1.20;99.90;;;;;;5132492;27;20047;-69
2021/12/23 02:04:40;;;;;;;19.85;13.00;;;1.20;99.90;;;;;;5148052;27;20436;-69
2021/12/23 02:07:06;;;;;;;20.95;12.68;;;1.20;99.90;;;;;;5142508;27;20755;-69
2021/12/23 02:09:31;;;;;;;20.95;14.15;;;1.20;99.90;;;;;;5132725;27;20493;-69
2021/12/23 02:11:57;;;;;;;20.35;13.23;;;1.20;99.90;;;;;;5139461;27;20039;-70
2021/12/23 02:14:23;;;;;;;20.58;12.70;;;1.20;99.90;;;;;;5136498;27;21016;-70
2021/12/23 02:16:49;;;;;;;19.08;13.52;;;1.20;99.90;;;;;;5131631;27;20043;-69
2021/12/23 02:19:18;;;;;;;19.38;13.10;;;1.20;99.90;;;;;;5131697;27;20039;-69
2021/12/23 02:21:48;;;;;;;18.20;11.68;;;1.20;99.90;;;;;;5126650;27;20126;-70
2021/12/23 02:24:14;;;;;;;18.73;13.10;;;1.20;99.90;;;;;;5142835;27;20053;-69
2021/12/23 02:26:41;;;;;;;20.05;13.45;;;1.20;99.90;;;;;;5142528;27;20035;-69
2021/12/23 02:29:08;;;;;;;20.90;13.45;;;1.20;99.90;;;;;;5117400;27;20514;-69
2021/12/23 02:31:34;;;;;;;26.08;13.82;;;1.20;99.90;;;;;;5123437;27;20052;-69
2021/12/23 02:33:59;;;;;;;19.35;12.63;;;1.20;99.90;;;;;;5117409;27;20058;-69
2021/12/23 02:36:26;;;;;;;17.33;11.90;;;1.20;99.90;;;;;;5139992;27;20039;-69
2021/12/23 02:38:53;;;;;;;21.30;13.65;;;1.20;99.90;;;;;;5129865;27;20039;-70
2021/12/23 02:41:19;;;;;;;21.60;14.57;;;1.20;99.90;;;;;;5112239;27;20112;-69
2021/12/23 02:43:45;;;;;;;19.63;14.00;;;1.20;99.90;;;;;;5126648;27;20490;-69
2021/12/23 02:46:11;;;;;;;23.85;13.52;;;1.20;99.90;;;;;;5113556;27;20130;-70
2021/12/23 02:48:38;;;;;;;23.75;13.73;;;1.20;99.90;;;;;;5124333;27;20035;-70
2021/12/23 02:51:10;;;;;;;21.98;15.18;;;1.20;99.90;;;;;;5135632;27;20030;-68
2021/12/23 02:53:36;;;;;;;19.13;12.25;;;1.20;99.90;;;;;;5131762;27;20043;-69
2021/12/23 02:56:04;;;;;;;18.05;13.43;;;1.20;99.90;;;;;;5093228;28;20055;-69
2021/12/23 02:58:30;;;;;;;21.00;13.82;;;1.20;99.90;;;;;;5092622;27;20074;-69
2021/12/23 03:00:59;;;;;;;17.98;13.57;;;1.20;99.90;;;;;;5113455;27;20478;-69
2021/12/23 03:03:25;;;;;;;21.60;13.60;;;1.20;99.90;;;;;;5126751;27;20043;-69
2021/12/23 03:05:53;;;;;;;21.08;14.00;;;1.20;99.90;;;;;;5111303;27;20051;-69
2021/12/23 03:08:32;;;;;;;17.02;12.43;;;1.20;99.90;;;;;;5104419;27;20039;-69
2021/12/23 03:10:58;;;;;;;19.65;14.15;;;1.20;99.90;;;;;;5143228;27;20051;-69
2021/12/23 03:13:25;;;;;;;20.77;14.55;;;1.20;99.90;;;;;;5126093;27;20049;-69
2021/12/23 03:15:50;;;;;;;24.80;13.13;;;1.20;99.90;;;;;;5112223;27;20035;-69
2021/12/23 03:18:16;;;;;;;23.60;15.25;;;1.30;99.90;;;;;;5117420;27;20049;-69
2021/12/23 03:20:41;;;;;;;19.42;12.80;;;1.30;99.90;;;;;;5139936;27;20027;-69
2021/12/23 03:23:07;;;;;;;18.77;13.00;;;1.30;99.90;;;;;;5146230;27;20090;-69
2021/12/23 03:25:33;;;;;;;20.42;13.77;;;1.30;99.90;;;;;;5121781;27;20078;-69
2021/12/23 03:27:58;;;;;;;21.77;13.63;;;1.30;99.90;;;;;;5145918;27;20050;-69
2021/12/23 03:30:24;;;;;;;19.25;13.73;;;1.30;99.90;;;;;;5120688;27;20088;-69
2021/12/23 03:32:50;;;;;;;19.67;12.93;;;1.20;99.90;;;;;;5095004;28;20130;-70
2021/12/23 03:35:16;;;;;;;22.13;13.88;;;1.30;99.90;;;;;;5144480;27;20043;-69
2021/12/23 03:37:43;;;;;;;20.60;13.85;;;1.30;99.90;;;;;;5131372;27;20050;-69
2021/12/23 03:40:09;;;;;;;16.90;12.48;;;1.20;99.90;;;;;;5137661;27;20062;-69
2021/12/23 03:42:35;;;;;;;24.70;15.10;;;1.30;99.90;;;;;;5104156;28;20116;-69
2021/12/23 03:45:02;;;;;;;19.88;13.60;;;1.20;99.90;;;;;;5098874;28;20040;-69
2021/12/23 03:47:28;;;;;;;24.73;14.30;;;1.20;99.90;;;;;;5108598;27;20058;-69
2021/12/23 03:49:53;;;;;;;25.50;14.65;;;1.20;99.90;;;;;;5129813;27;20398;-69
2021/12/23 03:52:19;;;;;;;25.75;14.98;;;1.30;99.90;;;;;;5129623;27;20104;-69
2021/12/23 03:54:44;;;;;;;25.60;16.38;;;1.30;99.90;;;;;;5111392;27;20051;-69
2021/12/23 03:57:10;;;;;;;21.58;15.05;;;1.30;99.90;;;;;;5119487;27;20043;-69
2021/12/23 03:59:36;;;;;;;18.58;13.15;;;1.30;99.90;;;;;;5113812;27;20058;-69
2021/12/23 04:02:02;;;;;;;19.92;14.95;;;1.30;99.90;;;;;;5129113;27;20043;-69
2021/12/23 04:04:27;;;;;;;21.70;14.82;;;1.30;99.90;;;;;;5145403;27;20669;-69
2021/12/23 04:06:53;;;;;;;21.60;15.07;;;1.40;99.90;;;;;;5121789;27;20126;-69
2021/12/23 04:09:19;;;;;;;21.40;15.40;;;1.30;99.90;;;;;;5133600;27;20126;-69
2021/12/23 04:11:44;;;;;;;21.83;13.98;;;1.30;99.90;;;;;;5145749;27;20050;-69
2021/12/23 04:14:10;;;;;;;23.15;14.35;;;1.30;99.90;;;;;;5112947;27;20066;-67
2021/12/23 04:16:36;;;;;;;23.30;16.42;;;1.30;99.90;;;;;;5123753;27;20043;-67
2021/12/23 04:19:06;;;;;;;22.65;14.35;;;1.30;99.90;;;;;;5129609;27;20043;-67
2021/12/23 04:21:32;;;;;;;22.73;15.70;;;1.30;99.90;;;;;;5136606;27;20517;-68
2021/12/23 04:23:57;;;;;;;22.02;15.40;;;1.30;99.90;;;;;;5132024;27;20055;-67
2021/12/23 04:26:23;;;;;;;22.15;15.55;;;1.30;99.90;;;;;;5125474;27;20054;-67
2021/12/23 04:28:49;;;;;;;23.13;15.02;;;1.30;99.90;;;;;;5108134;27;20043;-67
2021/12/23 04:31:18;;;;;;;19.17;14.32;;;1.30;99.90;;;;;;5112490;27;20059;-67
2021/12/23 04:33:45;;;;;;;21.25;15.68;;;1.30;99.90;;;;;;5131703;27;20047;-68
2021/12/23 04:36:11;;;;;;;23.33;16.23;;;1.30;99.90;;;;;;5117548;27;20039;-67
2021/12/23 04:38:39;;;;;;;25.98;16.75;;;1.40;99.90;;;;;;5115001;27;20058;-67
2021/12/23 04:41:05;;;;;;;21.20;14.82;;;1.30;99.90;;;;;;5126789;27;20094;-67
2021/12/23 04:43:31;;;;;;;23.83;15.32;;;1.30;99.90;;;;;;5127069;27;20046;-67
2021/12/23 04:45:57;;;;;;;22.42;15.05;;;1.40;99.90;;;;;;5127312;27;20125;-69
2021/12/23 04:48:22;;;;;;;23.33;14.70;;;1.30;99.90;;;;;;5114681;27;20070;-68
2021/12/23 04:50:48;;;;;;;23.02;16.42;;;1.30;99.90;;;;;;5128985;27;20044;-68
2021/12/23 04:53:14;;;;;;;24.35;15.90;;;1.40;99.90;;;;;;5129626;27;20450;-68
2021/12/23 04:55:40;;;;;;;20.83;14.40;;;1.30;99.90;;;;;;5129844;27;20394;-68
2021/12/23 04:58:05;;;;;;;29.63;15.75;;;1.30;99.90;;;;;;5128701;27;20043;-68
2021/12/23 05:00:31;;;;;;;24.92;16.02;;;1.30;99.90;;;;;;5111323;27;20074;-68
2021/12/23 05:02:56;;;;;;;23.52;15.35;;;1.30;99.90;;;;;;5116358;27;20406;-70
2021/12/23 05:05:22;;;;;;;22.75;14.93;;;1.30;99.90;;;;;;5110281;27;20055;-70
2021/12/23 05:07:48;;;;;;;21.20;15.18;;;1.30;99.90;;;;;;5128983;27;20398;-70
2021/12/23 05:10:16;;;;;;;22.10;15.70;;;1.30;99.90;;;;;;5140550;27;20077;-70
2021/12/23 05:12:44;;;;;;;23.48;15.95;;;1.30;99.90;;;;;;5143055;27;20040;-70
2021/12/23 05:15:15;;;;;;;26.35;16.00;;;1.30;99.90;;;;;;5142829;27;20118;-70
2021/12/23 05:17:41;;;;;;;24.58;15.65;;;1.30;99.90;;;;;;5131169;27;20031;-70
2021/12/23 05:20:09;;;;;;;24.08;16.35;;;1.20;99.90;;;;;;5134865;27;20513;-70
2021/12/23 05:22:35;;;;;;;22.17;14.57;;;1.30;99.90;;;;;;5130898;27;20047;-70
2021/12/23 05:25:01;;;;;;;23.83;15.98;;;1.30;99.90;;;;;;5110594;28;20054;-70
2021/12/23 05:27:27;;;;;;;23.17;16.77;;;1.30;99.90;;;;;;5109959;28;20122;-70
2021/12/23 05:29:53;;;;;;;27.88;16.65;;;1.30;99.90;;;;;;5117794;27;20601;-70
2021/12/23 05:32:19;;;;;;;22.85;17.00;;;1.30;99.90;;;;;;5137185;27;20047;-70
2021/12/23 05:34:44;;;;;;;32.40;17.83;;;1.30;99.90;;;;;;5118712;27;20051;-70
2021/12/23 05:37:10;;;;;;;22.30;15.68;;;1.30;99.90;;;;;;5124879;27;20493;-70
2021/12/23 05:39:35;;;;;;;25.42;17.27;;;1.30;99.90;;;;;;5124542;27;20050;-70
2021/12/23 05:42:01;;;;;;;23.75;16.15;;;1.30;99.90;;;;;;5111438;28;20040;-70
2021/12/23 05:44:27;;;;;;;27.25;18.67;;;1.30;99.90;;;;;;5091462;27;20060;-70
2021/12/23 05:46:52;;;;;;;25.70;17.35;;;1.30;99.90;;;;;;5142461;27;20039;-70
2021/12/23 05:49:18;;;;;;;27.05;17.48;;;1.30;99.90;;;;;;5118702;28;20093;-70
2021/12/23 05:51:44;;;;;;;29.42;19.35;;;1.30;99.90;;;;;;5125491;28;20047;-70
2021/12/23 05:54:09;;;;;;;27.70;18.23;;;1.30;99.90;;;;;;5136044;27;20054;-70
2021/12/23 05:56:35;;;;;;;24.80;17.25;;;1.30;99.90;;;;;;5126123;27;20047;-70
2021/12/23 05:59:00;;;;;;;27.48;18.77;;;1.20;99.90;;;;;;5129155;28;20043;-70
2021/12/23 06:01:26;;;;;;;25.25;17.35;;;1.30;99.90;;;;;;5115076;28;20043;-70
2021/12/23 06:03:52;;;;;;;29.75;19.27;;;1.20;99.90;;;;;;5134713;27;20047;-70
2021/12/23 06:06:17;;;;;;;29.33;17.95;;;1.30;99.90;;;;;;5110922;28;20142;-70
2021/12/23 06:08:43;;;;;;;27.48;18.88;;;1.30;99.90;;;;;;5103612;28;20070;-70
2021/12/23 06:11:09;;;;;;;28.67;17.20;;;1.30;99.90;;;;;;5115692;28;20104;-70
2021/12/23 06:13:35;;;;;;;29.52;18.25;;;1.20;99.90;;;;;;5138205;27;20043;-70
2021/12/23 06:16:00;;;;;;;29.25;18.42;;;1.30;99.90;;;;;;5118474;27;20042;-70
2021/12/23 06:18:26;;;;;;;24.77;18.02;;;1.30;99.90;;;;;;5135368;27;20039;-70
2021/12/23 06:20:52;;;;;;;27.48;17.75;;;1.20;99.90;;;;;;5129072;27;20443;-70
2021/12/23 06:23:17;;;;;;;30.40;18.95;;;1.30;99.90;;;;;;5139119;27;20596;-70
2021/12/23 06:25:43;;;;;;;25.98;18.15;;;1.20;99.90;;;;;;5133247;27;20043;-70
2021/12/23 06:28:09;;;;;;;26.75;17.23;;;1.30;99.90;;;;;;5113987;27;20049;-70
2021/12/23 06:30:34;;;;;;;25.38;17.20;;;1.30;99.90;;;;;;5138316;27;20033;-70
2021/12/23 06:33:00;;;;;;;27.05;17.65;;;1.30;99.90;;;;;;5106798;27;20099;-70
2021/12/23 06:35:29;;;;;;;29.75;18.45;;;1.30;99.90;;;;;;5123437;28;20047;-70
2021/12/23 06:37:55;;;;;;;25.52;16.33;;;1.40;99.90;;;;;;5107289;27;20051;-70
2021/12/23 06:40:21;;;;;;;27.52;18.50;;;1.30;99.90;;;;;;5121495;27;20051;-70
2021/12/23 06:42:47;;;;;;;27.60;18.40;;;1.30;99.90;;;;;;5102120;28;20058;-70
2021/12/23 06:45:14;;;;;;;30.83;18.83;;;1.30;99.90;;;;;;5118446;27;20043;-70
2021/12/23 06:47:41;;;;;;;25.15;18.38;;;1.30;99.90;;;;;;5143485;27;20513;-70
2021/12/23 06:50:08;;;;;;;30.95;18.83;;;1.30;99.90;;;;;;5128919;27;20482;-69
2021/12/23 06:52:35;;;;;;;32.58;19.95;;;1.30;99.90;;;;;;5127096;27;20087;-70
2021/12/23 06:55:01;;;;;;;24.85;17.58;;;1.30;99.90;;;;;;5131297;27;20085;-70
2021/12/23 06:57:27;;;;;;;27.67;19.25;;;1.30;99.90;;;;;;5131855;27;20063;-69
2021/12/23 06:59:53;;;;;;;33.03;19.65;;;1.30;99.90;;;;;;5133374;27;20051;-70
2021/12/23 07:02:19;;;;;;;29.25;20.20;;;1.30;99.90;;;;;;5147574;27;20042;-69
2021/12/23 07:04:45;;;;;;;30.50;18.48;;;1.30;99.90;;;;;;5111862;27;20390;-70
2021/12/23 07:07:13;;;;;;;23.08;17.38;;;1.30;99.90;;;;;;5124466;27;20474;-70
2021/12/23 07:09:45;;;;;;;29.80;20.67;;;1.30;99.90;;;;;;5123740;27;20064;-69
2021/12/23 07:12:12;;;;;;;25.33;18.23;;;1.30;99.90;;;;;;5135349;27;20040;-69
2021/12/23 07:14:38;;;;;;;29.00;19.02;;;1.30;99.90;;;;;;5113861;27;20120;-70
2021/12/23 07:17:05;;;;;;;32.55;21.45;;;1.30;99.90;;;;;;5127190;27;20107;-70
2021/12/23 07:19:30;;;;;;;30.90;19.13;;;1.30;99.90;;;;;;5115073;27;20047;-70
2021/12/23 07:21:56;;;;;;;29.67;19.52;;;1.30;99.90;;;;;;5109630;27;20130;-70
2021/12/23 07:24:22;;;;;;;28.58;20.10;;;1.30;99.90;;;;;;5131662;27;20065;-70
2021/12/23 07:26:48;;;;;;;31.50;20.85;;;1.30;99.90;;;;;;5114376;27;20096;-69
2021/12/23 07:29:14;;;;;;;31.92;20.27;;;1.30;99.90;;;;;;5108496;27;20655;-69
2021/12/23 07:31:39;;;;;;;29.73;21.08;;;1.30;99.90;;;;;;5103180;28;20078;-69
2021/12/23 07:34:05;;;;;;;29.58;22.02;;;1.30;99.90;;;;;;5116199;27;20042;-70
2021/12/23 07:36:31;;;;;;;32.33;20.45;;;1.30;99.90;;;;;;5134781;27;20038;-70
2021/12/23 07:38:57;;;;;;;33.80;21.73;;;1.30;99.90;;;;;;5125749;27;20066;-69
2021/12/23 07:41:26;;;;;;;36.88;21.77;;;1.30;99.90;;;;;;5133975;27;20157;-70
2021/12/23 07:46:21;;;;;;;35.97;22.83;;;1.40;99.90;;;;;;5131249;27;20055;-67
2021/12/23 07:48:46;;;;;;;36.38;22.98;;;1.40;99.90;;;;;;5131396;27;20551;-67
2021/12/23 07:51:13;;;;;;;35.80;23.25;;;1.30;99.90;;;;;;5122634;27;20099;-67
2021/12/23 07:53:38;;;;;;;36.90;25.27;;;1.40;99.90;;;;;;5112474;27;20055;-67
2021/12/23 07:56:04;;;;;;;39.83;24.77;;;1.40;99.90;;;;;;5114613;27;20099;-67
2021/12/23 07:58:30;;;;;;;42.80;26.58;;;1.40;99.90;;;;;;5131973;27;20052;-67
2021/12/23 08:00:56;;;;;;;40.88;26.17;;;1.40;99.90;;;;;;5130316;27;20142;-67
2021/12/23 08:03:22;;;;;;;48.53;30.98;;;1.40;99.90;;;;;;5139398;27;20126;-66
2021/12/23 08:05:48;;;;;;;51.63;33.33;;;1.50;99.90;;;;;;5130434;27;20319;-69
2021/12/23 08:08:14;;;;;;;57.47;34.75;;;1.40;99.90;;;;;;5128767;27;20051;-67
2021/12/23 08:10:40;;;;;;;51.95;33.55;;;1.40;99.90;;;;;;5128827;27;20047;-67
2021/12/23 08:13:07;;;;;;;60.80;35.05;;;1.50;99.90;;;;;;5129883;27;20047;-67
2021/12/23 08:15:33;;;;;;;56.35;35.10;;;1.50;99.90;;;;;;5131820;27;20039;-67
2021/12/23 08:17:58;;;;;;;59.50;36.30;;;1.50;99.90;;;;;;5138539;27;20045;-67
2021/12/23 08:20:24;;;;;;;57.28;36.00;;;1.50;99.90;;;;;;5124314;27;20039;-67
2021/12/23 08:22:50;;;;;;;61.65;37.45;;;1.50;99.90;;;;;;5128382;27;20050;-67
2021/12/23 08:25:16;;;;;;;56.78;37.58;;;1.50;99.90;;;;;;5125857;27;20540;-67
2021/12/23 08:27:42;;;;;;;58.45;38.30;;;1.50;99.90;;;;;;5135554;27;20091;-68
2021/12/23 08:30:10;;;;;;;62.60;38.38;;;1.50;99.90;;;;;;5122088;27;20130;-66
2021/12/23 08:32:36;;;;;;;72.13;41.38;;;1.60;99.90;;;;;;5126812;27;20051;-68
2021/12/23 08:35:02;;;;;;;69.50;41.25;;;1.60;99.90;;;;;;5098003;27;20141;-68
2021/12/23 08:37:27;;;;;;;72.93;41.78;;;1.60;99.90;;;;;;5134504;27;20069;-68
2021/12/23 08:39:54;;;;;;;78.47;43.05;;;1.50;99.90;;;;;;5111523;27;20047;-68
2021/12/23 08:42:20;;;;;;;68.13;41.45;;;1.60;99.90;;;;;;5138142;27;20489;-68
2021/12/23 08:44:45;;;;;;;68.55;39.95;;;1.60;99.90;;;;;;5132846;27;20048;-68
2021/12/23 08:47:13;;;;;;;77.72;44.38;;;1.60;99.90;;;;;;5135161;27;20455;-68
2021/12/23 08:49:40;;;;;;;74.00;42.78;;;1.50;99.90;;;;;;5109017;27;20038;-68
2021/12/23 08:52:06;;;;;;;75.13;44.92;;;1.60;99.90;;;;;;5138918;27;20047;-68
2021/12/23 08:54:31;;;;;;;72.22;43.17;;;1.60;99.90;;;;;;5130054;27;20031;-68
2021/12/23 08:56:57;;;;;;;77.05;42.95;;;1.60;99.90;;;;;;5133384;27;20680;-68
2021/12/23 08:59:22;;;;;;;76.30;42.17;;;1.60;99.90;;;;;;5131773;27;20043;-68
2021/12/23 09:01:48;;;;;;;77.72;43.55;;;1.60;99.90;;;;;;5120924;27;20050;-68
2021/12/23 09:04:14;;;;;;;78.90;44.63;;;1.60;99.90;;;;;;5133989;27;20437;-68
2021/12/23 09:06:39;;;;;;;74.60;42.00;;;1.50;99.90;;;;;;5118603;27;20070;-68
2021/12/23 09:09:07;;;;;;;79.70;44.95;;;1.50;99.90;;;;;;5133129;27;20070;-69
2021/12/23 09:11:33;;;;;;;68.30;38.63;;;1.50;99.90;;;;;;5104879;27;20047;-69
2021/12/23 09:13:58;;;;;;;69.70;40.15;;;1.60;99.90;;;;;;5128233;27;20043;-70
2021/12/23 09:16:24;;;;;;;78.18;43.92;;;1.50;99.90;;;;;;5109825;27;20073;-70
2021/12/23 09:18:50;;;;;;;76.32;43.40;;;1.60;99.90;;;;;;5135164;27;20039;-70
2021/12/23 09:21:16;;;;;;;88.90;45.83;;;1.50;99.90;;;;;;5137174;27;20070;-70
2021/12/23 09:23:42;;;;;;;74.32;43.42;;;1.60;99.90;;;;;;5129338;27;20467;-70
2021/12/23 09:26:10;;;;;;;80.57;43.53;;;1.50;99.90;;;;;;5119078;27;20070;-70
2021/12/23 09:34:10;;;;;;;83.30;47.17;;;1.50;99.90;;;;;;5110458;28;20078;-70
2021/12/23 09:36:37;;;;;;;99.28;50.00;;;1.50;99.90;;;;;;5117697;27;20501;-70
2021/12/23 09:39:06;;;;;;;87.22;45.90;;;1.50;99.90;;;;;;5133002;27;20454;-70
2021/12/23 09:41:33;;;;;;;92.90;50.58;;;1.50;99.90;;;;;;5110104;28;20097;-70
2021/12/23 09:44:00;;;;;;;90.88;47.58;;;1.50;99.90;;;;;;5089901;28;20410;-70
2021/12/23 09:46:26;;;;;;;92.35;47.83;;;1.60;99.90;;;;;;5113952;27;20062;-70
2021/12/23 09:48:52;;;;;;;102.93;50.65;;;1.50;99.90;;;;;;5119851;27;20062;-70
2021/12/23 09:51:20;;;;;;;94.38;48.83;;;1.50;99.90;;;;;;5119013;27;20050;-70
2021/12/23 09:53:55;;;;;;;93.38;48.17;;;1.60;99.90;;;;;;5119017;28;20051;-70
2021/12/23 09:56:20;;;;;;;93.03;47.58;;;1.60;99.90;;;;;;5113651;28;20043;-70
2021/12/23 09:58:46;;;;;;;98.43;48.92;;;1.60;99.90;;;;;;5124731;27;20751;-70
2021/12/23 10:01:12;;;;;;;99.60;48.35;;;1.60;99.90;;;;;;5134625;27;20078;-70
2021/12/23 10:03:39;;;;;;;96.85;47.78;;;1.60;99.90;;;;;;5134454;27;20040;-70
2021/12/23 10:06:05;;;;;;;94.63;48.25;;;1.60;99.90;;;;;;5111870;27;20565;-70
2021/12/23 10:08:30;;;;;;;94.25;48.38;;;1.70;99.90;;;;;;5116720;28;20036;-70
2021/12/23 10:11:05;;;;;;;87.78;46.08;;;1.60;99.90;;;;;;5125153;27;20068;-71
2021/12/23 10:38:08;;;;;;;92.45;48.20;;;1.60;99.90;;;;;;5113090;27;20051;-69
2021/12/23 10:40:36;;;;;;;94.70;48.40;;;1.70;99.90;;;;;;5127924;27;20658;-69
2021/12/23 10:43:03;;;;;;;99.70;49.10;;;1.70;99.90;;;;;;5131505;27;20039;-69
2021/12/23 10:45:52;;;;;;;95.07;48.33;;;1.70;99.90;;;;;;5115097;27;20421;-69
2021/12/23 10:48:18;;;;;;;102.80;46.58;;;1.70;99.90;;;;;;5128484;27;20049;-69
2021/12/23 10:50:51;;;;;;;94.38;49.22;;;1.70;99.90;;;;;;5135058;27;20035;-69
2021/12/23 10:53:46;;;;;;;103.55;47.95;;;1.70;99.90;;;;;;5106661;27;20043;-69
2021/12/23 10:59:05;;;;;;;89.88;46.53;;;1.70;99.90;;;;;;5145852;27;20050;-69
2021/12/23 11:01:32;;;;;;;83.40;43.45;;;1.70;99.90;;;;;;5134997;27;20074;-69
2021/12/23 11:04:03;;;;;;;97.47;48.13;;;1.70;99.90;;;;;;5135807;27;20040;-69
2021/12/23 11:06:35;;;;;;;98.35;48.70;;;1.70;99.90;;;;;;5133611;27;20042;-69
2021/12/23 11:35:43;;;;;;;87.45;45.58;;;1.80;99.90;;;;;;5141604;27;20214;-67
2021/12/23 11:37:57;;;;;;;88.75;46.08;;;1.90;99.90;;;;;;5138027;27;20042;-67
2021/12/23 11:40:38;;;;;;;92.70;46.17;;;1.90;99.90;;;;;;5101642;27;20429;-67
2021/12/23 11:45:33;;;;;;;84.95;44.10;;;1.90;99.90;;;;;;5132892;27;20129;-67
2021/12/23 11:47:59;;;;;;;84.35;46.20;;;1.90;99.90;;;;;;5130133;27;20494;-67
2021/12/23 11:50:32;;;;;;;90.70;45.92;;;1.90;99.90;;;;;;5113347;27;20043;-67
2021/12/23 11:52:58;;;;;;;95.43;49.35;;;1.90;99.90;;;;;;5134125;27;20047;-67
2021/12/23 11:55:24;;;;;;;87.90;44.63;;;2.00;99.90;;;;;;5134209;27;20482;-67
2021/12/23 11:57:51;;;;;;;100.07;49.22;;;2.00;99.90;;;;;;5131279;27;20674;-67
2021/12/23 12:00:21;;;;;;;89.25;47.28;;;2.00;99.90;;;;;;5134245;27;20046;-67
2021/12/23 12:03:00;;;;;;;93.03;44.47;;;2.00;99.90;;;;;;5129799;27;20046;-67
2021/12/23 12:05:26;;;;;;;92.32;45.20;;;2.10;99.90;;;;;;5112090;27;20483;-67
2021/12/23 12:08:13;;;;;;;85.25;45.08;;;2.00;99.90;;;;;;5130013;27;20047;-67
2021/12/23 12:10:41;;;;;;;82.95;45.30;;;2.10;99.90;;;;;;5125942;27;20062;-67
2021/12/23 12:13:11;;;;;;;97.78;47.17;;;2.10;99.90;;;;;;5130282;27;20093;-67
2021/12/23 12:15:41;;;;;;;90.57;44.97;;;2.00;99.90;;;;;;5131779;27;20043;-67
2021/12/23 12:18:10;;;;;;;84.00;42.42;;;2.10;99.90;;;;;;5149606;27;20050;-67
2021/12/23 12:20:46;;;;;;;83.72;44.97;;;2.10;99.90;;;;;;5144504;27;20038;-67
2021/12/23 12:23:14;;;;;;;90.05;46.17;;;2.10;99.90;;;;;;5139543;27;20070;-67
2021/12/23 12:25:44;;;;;;;100.30;47.05;;;2.10;99.90;;;;;;5115468;27;20047;-67
2021/12/23 12:28:43;;;;;;;93.35;46.42;;;2.10;99.90;;;;;;5128800;27;20043;-67
2021/12/23 12:31:18;;;;;;;94.22;46.00;;;2.10;99.90;;;;;;5129617;27;20051;-67
2021/12/23 12:34:06;;;;;;;83.10;45.17;;;2.20;99.90;;;;;;5137546;27;20040;-67
2021/12/23 12:36:39;;;;;;;94.45;46.28;;;2.20;99.90;;;;;;5117458;27;20047;-67
2021/12/23 12:39:10;;;;;;;93.75;45.03;;;2.20;99.90;;;;;;5137359;27;20039;-67
2021/12/23 12:41:38;;;;;;;91.18;46.63;;;2.20;99.90;;;;;;5100126;27;20181;-67
2021/12/23 12:44:13;;;;;;;86.25;43.70;;;2.20;99.90;;;;;;5146169;27;20043;-67
2021/12/23 12:46:45;;;;;;;89.63;45.17;;;2.30;99.90;;;;;;5138460;27;20482;-67
2021/12/23 12:49:25;;;;;;;94.05;47.95;;;2.30;99.90;;;;;;5098197;27;20126;-67
2021/12/23 12:51:54;;;;;;;88.03;46.90;;;2.30;99.90;;;;;;5142288;27;20057;-67
2021/12/23 12:54:32;;;;;;;91.88;46.85;;;2.30;99.90;;;;;;5130364;27;20537;-67
2021/12/23 12:57:04;;;;;;;97.68;46.35;;;2.30;99.90;;;;;;5128987;27;20123;-67
2021/12/23 12:59:34;;;;;;;90.07;45.88;;;2.30;99.90;;;;;;5138001;27;20051;-67
2021/12/23 13:02:00;;;;;;;96.05;45.75;;;2.30;99.90;;;;;;5130513;27;20067;-67
2021/12/23 13:04:30;;;;;;;93.95;45.83;;;2.30;99.90;;;;;;5117493;27;20116;-67
2021/12/23 13:06:58;;;;;;;103.72;46.90;;;2.30;99.90;;;;;;5107946;28;20043;-67
2021/12/23 13:09:35;;;;;;;87.65;46.08;;;2.40;99.90;;;;;;5120459;27;20069;-67
2021/12/23 13:12:04;;;;;;;93.55;44.75;;;2.40;99.90;;;;;;5138710;27;20386;-67
2021/12/23 13:15:15;;;;;;;103.60;47.10;;;2.40;99.90;;;;;;5123978;27;20051;-67
2021/12/23 13:17:49;;;;;;;92.63;45.80;;;2.40;99.90;;;;;;5109602;27;20054;-67
2021/12/23 13:20:16;;;;;;;87.07;45.30;;;2.40;99.90;;;;;;5125489;27;20070;-67
2021/12/23 13:22:43;;;;;;;92.00;46.25;;;2.40;99.90;;;;;;5111082;27;20394;-67
2021/12/23 13:25:09;;;;;;;91.35;44.40;;;2.40;99.90;;;;;;5109746;27;20156;-67
2021/12/23 13:27:40;;;;;;;95.28;47.80;;;2.40;99.90;;;;;;5123006;27;20043;-68
2021/12/23 13:30:09;;;;;;;84.95;41.72;;;2.40;99.90;;;;;;5134981;27;20039;-67
2021/12/23 13:32:35;;;;;;;92.53;46.88;;;2.40;99.90;;;;;;5121880;27;20054;-67
2021/12/23 13:35:12;;;;;;;91.75;43.75;;;2.50;99.90;;;;;;5112710;27;20035;-67
2021/12/23 13:37:45;;;;;;;100.10;44.35;;;2.50;99.90;;;;;;5108796;28;20142;-67
2021/12/23 13:40:24;;;;;;;93.35;45.15;;;2.50;99.90;;;;;;5122014;28;20099;-67
2021/12/23 13:42:50;;;;;;;94.93;46.80;;;2.50;99.90;;;;;;5140271;27;20050;-67
2021/12/23 13:45:15;;;;;;;86.90;45.13;;;2.50;99.90;;;;;;5115390;28;20048;-67
2021/12/23 13:47:41;;;;;;;93.40;45.22;;;2.50;99.90;;;;;;5124707;28;20036;-67